Weather at Lethbridge/Chinook Regional Hospital Heliport

Public forecast

Using degrees Celsius for public forecast. Weather courtesy of forecast.io.

Closest aviation weather report (METAR) to Lethbridge/Chinook Regional Hospital Heliport

Closest report is Lethbridge County Airport, 3.4 nm (6.3 km) S.

2024/05/22 21:00 (retrieved 43 minutes ago)

CYQL 222100Z 05020G26KT 25SM BKN026 BKN100 BKN250 12/06 A2979 RMK CU5AC2CI1 CI TR SLP100 DENSITY ALT 3600FT

Closest aviation forecast (TAF) to Lethbridge/Chinook Regional Hospital Heliport

Closest forecast is Lethbridge County Airport, 3.4 nm (6.3 km) S.

2024/05/22 20:45 Ammendment (retrieved 58 minutes ago)

TAF AMD TAF AMD CYQL 222043Z 2220/2306 06015G25KT P6SM BKN020 OVC100 TEMPO 2220/2223 SCT020 BKN100 FM222300 04012G22KT P6SM BKN025 OVC080 TEMPO 2223/2302 P6SM -SHRA OVC020 FM230200 04012KT P6SM BKN040 BECMG 2303/2305 FEW040 FM230500 02005KT P6SM SKC RMK NXT FCST BY 230000Z